Time;durP1;ratioP1;P1;durP2;ratioP2;P2;SDS_P1;SDS_P2;PMS_P1;PMS_P2;Temp;Humidity;BMP_temperature;BMP_pressure;BME280_temperature;BME280_humidity;BME280_pressure;Samples;Min_cycle;Max_cycle;Signal;HPM_P1;HPM_P2
2023/03/06 00:01:01;;;;;;;15.00;13.45;;;10.60;90.80;;;;;;5034478;28;20034;-69
2023/03/06 00:03:26;;;;;;;19.10;14.95;;;10.60;91.00;;;;;;5034428;28;20117;-68
2023/03/06 00:06:01;;;;;;;19.60;14.60;;;10.60;91.00;;;;;;5034102;28;20112;-67
2023/03/06 00:08:28;;;;;;;15.35;13.73;;;10.60;91.00;;;;;;5034100;28;20072;-68
2023/03/06 00:10:55;;;;;;;14.73;12.90;;;10.60;91.00;;;;;;5033926;28;20044;-68
2023/03/06 00:13:21;;;;;;;14.07;12.55;;;10.50;91.10;;;;;;5034164;28;20048;-68
2023/03/06 00:15:47;;;;;;;14.63;13.00;;;10.50;91.20;;;;;;5034108;28;20025;-68
2023/03/06 00:18:14;;;;;;;14.88;13.27;;;10.50;91.20;;;;;;5034493;28;20482;-68
2023/03/06 00:20:41;;;;;;;13.30;11.55;;;10.50;91.20;;;;;;5034247;28;20029;-68
2023/03/06 00:23:08;;;;;;;14.48;12.82;;;10.50;91.10;;;;;;5034008;28;20032;-68
2023/03/06 00:25:37;;;;;;;15.18;11.80;;;10.40;91.00;;;;;;5015687;28;20429;-68
2023/03/06 00:28:05;;;;;;;14.35;12.82;;;10.40;91.10;;;;;;5033769;28;20021;-67
2023/03/06 00:30:31;;;;;;;15.93;12.98;;;10.40;91.00;;;;;;5034223;28;20021;-67
2023/03/06 00:32:57;;;;;;;13.98;12.43;;;10.40;91.00;;;;;;5033717;28;20018;-68
2023/03/06 00:35:22;;;;;;;13.50;12.10;;;10.40;91.00;;;;;;5033810;28;20030;-68
2023/03/06 00:37:48;;;;;;;13.50;11.80;;;10.40;91.00;;;;;;5034019;28;20036;-68
2023/03/06 00:40:17;;;;;;;13.18;11.80;;;10.40;91.20;;;;;;5033431;28;20033;-68
2023/03/06 00:42:42;;;;;;;14.70;11.77;;;10.40;91.10;;;;;;5015974;28;20060;-68
2023/03/06 00:45:09;;;;;;;13.27;11.77;;;10.40;91.00;;;;;;5033456;28;20021;-68
2023/03/06 00:47:34;;;;;;;13.07;11.63;;;10.40;91.00;;;;;;5033701;28;20041;-68
2023/03/06 00:50:00;;;;;;;13.30;10.80;;;10.40;91.00;;;;;;5033618;28;20037;-68
2023/03/06 00:52:25;;;;;;;12.45;11.07;;;10.40;90.90;;;;;;5033312;28;20025;-68
2023/03/06 00:54:51;;;;;;;13.68;11.98;;;10.40;91.00;;;;;;5033230;28;20087;-68
2023/03/06 00:57:16;;;;;;;14.07;12.23;;;10.40;90.90;;;;;;5033559;28;20036;-68
2023/03/06 00:59:42;;;;;;;17.95;13.25;;;10.30;91.00;;;;;;5033394;28;20101;-68
2023/03/06 01:02:08;;;;;;;15.32;12.35;;;10.40;90.90;;;;;;5033373;28;20104;-67
2023/03/06 01:04:34;;;;;;;15.57;13.27;;;10.30;91.00;;;;;;5033131;28;20103;-68
2023/03/06 01:06:59;;;;;;;16.70;14.90;;;10.30;91.00;;;;;;5033130;28;20133;-68
2023/03/06 01:09:25;;;;;;;17.65;14.73;;;10.30;90.90;;;;;;5032793;28;20025;-68
2023/03/06 01:11:50;;;;;;;19.13;16.13;;;10.30;91.00;;;;;;5033156;28;20026;-68
2023/03/06 01:14:18;;;;;;;20.35;16.83;;;10.20;90.90;;;;;;5033110;28;20026;-68
2023/03/06 01:16:44;;;;;;;19.73;15.73;;;10.30;91.00;;;;;;5033191;28;20033;-68
2023/03/06 01:19:09;;;;;;;21.27;17.83;;;10.20;90.90;;;;;;5032977;28;20568;-68
2023/03/06 01:21:35;;;;;;;20.80;16.92;;;10.30;91.00;;;;;;5033164;28;20108;-68
2023/03/06 01:24:01;;;;;;;20.27;18.05;;;10.20;90.80;;;;;;5032440;28;20021;-68
2023/03/06 01:26:26;;;;;;;21.48;18.48;;;10.20;90.90;;;;;;5032807;28;20402;-67
2023/03/06 01:28:52;;;;;;;23.27;19.23;;;10.20;90.90;;;;;;5032707;28;20033;-67
2023/03/06 01:31:17;;;;;;;25.27;20.20;;;10.20;90.90;;;;;;5015108;28;20072;-69
2023/03/06 01:33:43;;;;;;;25.52;19.60;;;10.20;91.00;;;;;;5015058;28;20524;-68
2023/03/06 01:36:11;;;;;;;23.23;20.15;;;10.20;91.00;;;;;;5032786;28;20052;-68
2023/03/06 01:38:37;;;;;;;25.50;20.85;;;10.20;90.90;;;;;;5015060;28;20030;-68
2023/03/06 01:41:04;;;;;;;22.27;18.98;;;10.20;90.80;;;;;;5032606;28;20028;-68
2023/03/06 01:43:32;;;;;;;22.48;19.35;;;10.10;90.80;;;;;;5032677;28;20090;-68
2023/03/06 01:46:22;;;;;;;25.30;20.67;;;10.20;90.90;;;;;;5032671;28;20049;-69
2023/03/06 01:48:52;;;;;;;23.08;19.67;;;10.20;90.70;;;;;;5032394;28;20616;-69
2023/03/06 01:51:18;;;;;;;26.00;19.83;;;10.10;90.80;;;;;;5032147;28;20552;-67
2023/03/06 01:53:45;;;;;;;27.25;21.55;;;10.10;90.80;;;;;;5032440;28;20095;-67
2023/03/06 01:56:13;;;;;;;24.85;22.05;;;10.10;90.80;;;;;;5032473;28;20048;-67
2023/03/06 01:58:42;;;;;;;26.90;22.35;;;10.10;90.60;;;;;;5032620;28;20025;-67
2023/03/06 02:01:10;;;;;;;27.60;23.15;;;10.10;90.70;;;;;;5032455;28;20140;-68
2023/03/06 02:03:36;;;;;;;28.08;22.38;;;10.10;90.70;;;;;;5032342;28;20021;-67
2023/03/06 02:06:01;;;;;;;28.30;22.48;;;10.10;90.70;;;;;;5031917;28;20494;-67
2023/03/06 02:08:28;;;;;;;25.33;22.17;;;10.00;90.70;;;;;;5032400;28;20120;-67
2023/03/06 02:11:06;;;;;;;28.70;22.88;;;10.00;90.70;;;;;;5032297;28;20026;-68
2023/03/06 02:13:34;;;;;;;28.02;22.75;;;10.10;90.80;;;;;;5032436;28;20079;-67
2023/03/06 02:16:00;;;;;;;27.15;23.98;;;10.10;90.80;;;;;;5032126;28;20025;-67
2023/03/06 02:18:27;;;;;;;28.33;23.45;;;10.00;90.70;;;;;;5032393;28;20374;-67
2023/03/06 02:21:05;;;;;;;27.50;23.45;;;10.10;90.80;;;;;;5031130;28;20112;-67
2023/03/06 02:23:43;;;;;;;28.65;23.30;;;10.10;90.80;;;;;;5032341;28;20028;-67
2023/03/06 02:26:10;;;;;;;28.25;23.70;;;10.10;91.00;;;;;;5032118;28;20036;-67
2023/03/06 02:28:35;;;;;;;26.73;23.17;;;10.10;90.90;;;;;;5032142;28;20033;-67
2023/03/06 02:31:01;;;;;;;30.20;24.15;;;10.10;90.80;;;;;;5035013;28;20458;-67
2023/03/06 02:33:28;;;;;;;27.02;22.90;;;10.10;90.70;;;;;;5036252;28;20475;-67
2023/03/06 02:35:59;;;;;;;27.45;22.88;;;10.10;90.80;;;;;;5035624;28;20030;-67
2023/03/06 02:39:01;;;;;;;28.83;22.52;;;10.10;90.90;;;;;;5036153;28;20033;-68
2023/03/06 02:41:27;;;;;;;31.80;24.43;;;10.10;91.00;;;;;;4981574;28;20399;-67
2023/03/06 02:43:52;;;;;;;29.10;24.05;;;10.10;91.10;;;;;;5035833;28;20029;-67
2023/03/06 02:46:18;;;;;;;28.10;22.63;;;10.10;91.00;;;;;;5036178;28;20048;-67
2023/03/06 02:48:43;;;;;;;30.70;24.17;;;10.10;91.00;;;;;;5035674;28;20505;-67
2023/03/06 02:51:09;;;;;;;27.90;23.88;;;10.00;90.90;;;;;;5036161;28;20152;-67
2023/03/06 02:53:34;;;;;;;28.45;24.27;;;10.00;90.90;;;;;;5035747;28;20071;-67
2023/03/06 02:56:00;;;;;;;29.08;24.25;;;10.00;90.80;;;;;;5035417;28;20108;-68
2023/03/06 02:58:26;;;;;;;31.35;24.88;;;10.00;91.00;;;;;;5035732;28;20065;-68
2023/03/06 03:00:51;;;;;;;29.52;23.73;;;10.00;91.10;;;;;;5035732;28;20025;-68
2023/03/06 03:03:17;;;;;;;29.48;23.27;;;10.00;91.20;;;;;;5035253;28;20057;-67
2023/03/06 03:05:43;;;;;;;26.40;22.70;;;10.00;91.20;;;;;;5035065;28;20025;-68
2023/03/06 03:08:08;;;;;;;28.10;23.75;;;10.00;91.40;;;;;;5035251;28;20108;-68
2023/03/06 03:10:34;;;;;;;29.65;23.80;;;10.00;91.30;;;;;;5035528;28;20524;-68
2023/03/06 03:13:00;;;;;;;30.33;23.95;;;9.90;91.30;;;;;;5035819;28;20037;-68
2023/03/06 03:15:26;;;;;;;26.02;22.50;;;10.00;91.40;;;;;;5035339;28;20048;-67
2023/03/06 03:17:52;;;;;;;27.00;24.00;;;10.00;91.20;;;;;;5035249;28;20033;-68
2023/03/06 03:20:20;;;;;;;26.05;22.67;;;9.90;91.20;;;;;;5035012;28;20025;-68
2023/03/06 03:22:49;;;;;;;28.58;23.17;;;9.90;91.30;;;;;;5035170;28;20462;-68
2023/03/06 03:25:15;;;;;;;28.42;23.95;;;9.90;91.50;;;;;;5035158;28;20561;-68
2023/03/06 03:27:41;;;;;;;29.42;23.85;;;9.90;91.40;;;;;;5017451;28;20133;-68
2023/03/06 03:30:07;;;;;;;29.70;23.02;;;9.90;91.30;;;;;;5035074;28;20021;-68
2023/03/06 03:32:32;;;;;;;26.77;22.08;;;9.90;91.50;;;;;;5034977;28;20033;-68
2023/03/06 03:34:58;;;;;;;28.13;24.27;;;9.80;91.50;;;;;;5037786;28;20017;-68
2023/03/06 03:37:23;;;;;;;29.23;23.27;;;9.80;91.60;;;;;;5047311;28;20033;-68
2023/03/06 03:39:49;;;;;;;28.20;23.58;;;9.80;91.60;;;;;;5036396;28;20026;-69
2023/03/06 03:42:15;;;;;;;31.13;24.98;;;9.80;91.70;;;;;;5030593;28;20022;-67
2023/03/06 03:44:40;;;;;;;27.25;22.88;;;9.80;91.80;;;;;;5034571;28;20163;-68
2023/03/06 03:47:06;;;;;;;28.50;23.17;;;9.80;91.70;;;;;;5034398;28;20037;-68
2023/03/06 03:49:31;;;;;;;28.65;23.58;;;9.70;91.80;;;;;;5034689;28;20471;-67
2023/03/06 03:51:57;;;;;;;30.65;24.75;;;9.70;91.80;;;;;;5034608;28;20029;-68
2023/03/06 03:54:22;;;;;;;31.35;24.65;;;9.70;91.70;;;;;;5034657;28;20025;-68
2023/03/06 03:56:48;;;;;;;30.80;24.20;;;9.70;91.70;;;;;;5034443;28;20030;-67
2023/03/06 03:59:13;;;;;;;30.10;23.88;;;9.70;91.70;;;;;;5034563;28;20079;-67
2023/03/06 04:01:39;;;;;;;35.45;26.08;;;9.70;91.80;;;;;;5034338;28;20029;-68
2023/03/06 04:04:04;;;;;;;27.98;24.13;;;9.70;91.80;;;;;;5034549;28;20105;-67
2023/03/06 04:06:30;;;;;;;30.80;23.67;;;9.60;92.00;;;;;;5034331;28;20537;-67
2023/03/06 04:08:56;;;;;;;36.17;24.10;;;9.60;92.10;;;;;;5033624;28;20033;-68
2023/03/06 04:11:21;;;;;;;30.48;24.60;;;9.60;91.90;;;;;;5016630;28;20022;-68
2023/03/06 04:13:47;;;;;;;32.60;26.23;;;9.60;91.90;;;;;;5034193;28;20026;-68
2023/03/06 04:16:12;;;;;;;32.08;26.17;;;9.60;92.00;;;;;;5033932;28;20025;-68
2023/03/06 04:18:38;;;;;;;33.42;24.90;;;9.70;91.80;;;;;;5034137;28;20022;-67
2023/03/06 04:21:04;;;;;;;30.40;23.88;;;9.60;91.70;;;;;;5016427;28;20031;-68
2023/03/06 04:23:29;;;;;;;31.55;25.25;;;9.70;91.60;;;;;;5033938;28;20025;-68
2023/03/06 04:25:55;;;;;;;32.67;26.48;;;9.60;91.80;;;;;;5034146;28;20025;-68
2023/03/06 04:28:20;;;;;;;32.25;25.77;;;9.60;91.80;;;;;;5034060;28;20030;-68
2023/03/06 04:30:46;;;;;;;32.58;25.30;;;9.60;91.70;;;;;;5033788;28;20033;-68
2023/03/06 04:33:11;;;;;;;31.65;26.27;;;9.60;91.80;;;;;;5033801;28;20161;-68
2023/03/06 04:35:37;;;;;;;33.63;26.40;;;9.60;91.80;;;;;;5033612;28;20064;-68
2023/03/06 04:38:04;;;;;;;30.77;25.25;;;9.50;91.70;;;;;;5033845;28;20402;-68
2023/03/06 04:40:32;;;;;;;34.60;26.50;;;9.60;91.70;;;;;;5033838;28;20107;-67
2023/03/06 04:42:59;;;;;;;30.95;25.63;;;9.60;91.70;;;;;;5033664;28;20383;-67
2023/03/06 04:45:26;;;;;;;30.95;25.60;;;9.50;91.80;;;;;;5033330;28;20087;-67
2023/03/06 04:47:52;;;;;;;32.10;25.50;;;9.50;91.80;;;;;;5033562;28;20087;-67
2023/03/06 04:50:18;;;;;;;32.60;25.70;;;9.50;91.80;;;;;;5033677;28;20029;-67
2023/03/06 04:52:44;;;;;;;35.53;26.27;;;9.50;91.80;;;;;;5033030;28;20124;-67
2023/03/06 04:55:13;;;;;;;32.08;25.23;;;9.40;91.90;;;;;;5033439;28;20105;-67
2023/03/06 04:57:40;;;;;;;32.28;25.25;;;9.40;91.80;;;;;;5033288;28;20034;-67
2023/03/06 05:00:12;;;;;;;30.40;25.20;;;9.40;91.60;;;;;;5033095;28;20025;-66
2023/03/06 05:02:37;;;;;;;32.00;25.00;;;9.40;91.60;;;;;;5033418;28;20025;-68
2023/03/06 05:05:04;;;;;;;23.65;20.13;;;9.40;91.60;;;;;;5033323;28;20025;-66
2023/03/06 05:07:29;;;;;;;23.63;19.35;;;9.60;92.50;;;;;;5032767;28;20071;-66
2023/03/06 05:09:55;;;;;;;23.08;20.08;;;9.70;92.30;;;;;;5033169;28;20025;-67
2023/03/06 05:12:21;;;;;;;21.95;18.85;;;9.80;92.10;;;;;;5033261;28;20025;-67
2023/03/06 05:14:46;;;;;;;24.70;19.23;;;9.80;92.10;;;;;;5032921;28;20139;-67
2023/03/06 05:17:12;;;;;;;24.98;20.67;;;9.90;91.90;;;;;;5033167;28;20078;-68
2023/03/06 05:19:37;;;;;;;19.80;16.70;;;9.90;91.90;;;;;;5033077;28;20038;-67
2023/03/06 05:22:03;;;;;;;24.10;19.75;;;9.90;91.70;;;;;;5015424;28;20025;-67
2023/03/06 05:24:28;;;;;;;23.25;18.63;;;9.90;91.70;;;;;;5032819;28;20040;-67
2023/03/06 05:26:54;;;;;;;25.20;20.17;;;10.00;91.60;;;;;;5032972;28;20038;-67
2023/03/06 05:29:20;;;;;;;19.48;16.98;;;10.00;91.60;;;;;;5032519;28;20486;-67
2023/03/06 05:31:45;;;;;;;24.20;17.95;;;10.00;91.60;;;;;;5032836;28;20076;-67
2023/03/06 05:34:15;;;;;;;27.05;20.40;;;10.00;91.60;;;;;;5032965;28;20048;-67
2023/03/06 05:36:41;;;;;;;22.67;18.33;;;10.00;91.50;;;;;;5032997;28;20120;-68
2023/03/06 05:39:06;;;;;;;21.65;17.90;;;10.00;91.60;;;;;;5032599;28;20093;-68
2023/03/06 05:41:32;;;;;;;20.70;16.95;;;10.00;91.50;;;;;;5032663;28;20364;-68
2023/03/06 05:43:57;;;;;;;19.65;16.17;;;10.00;91.60;;;;;;5032378;28;20091;-68
2023/03/06 05:46:23;;;;;;;21.35;17.00;;;10.00;91.60;;;;;;5032789;28;20036;-67
2023/03/06 05:48:51;;;;;;;25.42;21.05;;;10.00;91.50;;;;;;5032423;28;20041;-67
2023/03/06 05:51:16;;;;;;;25.85;20.90;;;10.00;91.40;;;;;;5032704;28;20029;-67
2023/03/06 05:53:42;;;;;;;30.60;24.23;;;10.00;91.40;;;;;;5032477;28;20032;-68
2023/03/06 05:56:08;;;;;;;30.70;24.17;;;9.90;90.50;;;;;;5040220;28;20504;-68
2023/03/06 05:58:34;;;;;;;28.35;23.67;;;9.70;90.40;;;;;;5044970;28;20035;-67
2023/03/06 06:01:06;;;;;;;31.13;24.00;;;9.60;90.50;;;;;;5045429;28;20096;-67
2023/03/06 06:03:32;;;;;;;32.65;24.92;;;9.70;90.50;;;;;;5043178;28;20497;-67
2023/03/06 06:05:57;;;;;;;34.85;25.02;;;9.70;90.40;;;;;;5040091;28;20033;-67
2023/03/06 06:08:23;;;;;;;31.67;24.65;;;9.70;90.60;;;;;;5051564;28;20041;-67
2023/03/06 06:10:48;;;;;;;33.30;25.33;;;9.70;90.90;;;;;;5051620;28;20025;-67
2023/03/06 06:13:14;;;;;;;34.25;25.25;;;9.60;90.80;;;;;;5052150;28;20033;-68
2023/03/06 06:15:40;;;;;;;34.17;24.80;;;9.60;91.00;;;;;;5050868;28;20017;-68
2023/03/06 06:18:05;;;;;;;32.03;25.75;;;9.60;91.10;;;;;;5046654;28;20032;-67
2023/03/06 06:20:31;;;;;;;35.42;26.15;;;9.60;91.00;;;;;;5048398;28;20028;-67
2023/03/06 06:22:56;;;;;;;30.88;24.40;;;9.50;90.90;;;;;;5046787;28;20028;-68
2023/03/06 06:25:22;;;;;;;31.48;25.40;;;9.50;91.10;;;;;;5038509;28;20100;-67
2023/03/06 06:27:47;;;;;;;33.22;25.15;;;9.50;91.20;;;;;;5047569;28;20386;-67
2023/03/06 06:30:13;;;;;;;30.50;23.88;;;9.50;91.30;;;;;;5047105;28;20022;-68
2023/03/06 06:32:39;;;;;;;34.15;26.15;;;9.50;91.20;;;;;;5052008;28;20502;-67
2023/03/06 06:35:05;;;;;;;34.10;26.58;;;9.50;91.20;;;;;;5048939;28;20394;-67
2023/03/06 06:37:30;;;;;;;32.35;25.58;;;9.50;91.30;;;;;;5048074;28;20021;-67
2023/03/06 06:39:56;;;;;;;36.58;25.10;;;9.50;91.40;;;;;;5032831;28;20017;-67
2023/03/06 06:42:22;;;;;;;36.00;25.90;;;9.40;91.30;;;;;;5048139;28;20025;-68
2023/03/06 06:44:48;;;;;;;35.67;25.42;;;9.50;91.40;;;;;;5041017;28;20087;-68
2023/03/06 06:47:13;;;;;;;34.67;26.25;;;9.40;91.70;;;;;;5051962;28;20021;-68
2023/03/06 06:49:39;;;;;;;33.03;25.27;;;9.40;91.50;;;;;;5051179;28;20514;-68
2023/03/06 06:52:05;;;;;;;36.17;27.00;;;9.40;91.40;;;;;;5049078;28;20120;-67
2023/03/06 06:54:32;;;;;;;31.35;24.65;;;9.40;91.50;;;;;;5036513;28;20029;-68
2023/03/06 06:56:58;;;;;;;35.35;27.10;;;9.30;91.90;;;;;;5046639;28;20055;-68
2023/03/06 06:59:23;;;;;;;34.72;26.33;;;9.30;91.80;;;;;;5043319;28;20021;-68
2023/03/06 07:01:50;;;;;;;36.30;26.75;;;9.30;91.80;;;;;;5045595;28;20064;-68
2023/03/06 07:04:16;;;;;;;34.03;27.38;;;9.40;91.60;;;;;;5040312;28;20021;-67
2023/03/06 07:06:42;;;;;;;39.33;27.13;;;9.50;91.50;;;;;;5050793;28;20087;-68
2023/03/06 07:09:08;;;;;;;35.35;26.42;;;9.50;91.50;;;;;;5049602;28;20025;-68
2023/03/06 07:11:33;;;;;;;33.47;26.92;;;9.50;91.70;;;;;;5049509;28;20047;-68
2023/03/06 07:14:00;;;;;;;38.40;28.55;;;9.60;91.60;;;;;;5051624;28;20424;-67
2023/03/06 07:16:26;;;;;;;37.13;28.75;;;9.60;91.60;;;;;;5052777;28;20445;-67
2023/03/06 07:18:51;;;;;;;37.72;27.35;;;9.60;91.30;;;;;;5054492;28;20056;-67
2023/03/06 07:21:17;;;;;;;36.72;29.08;;;9.60;91.40;;;;;;5055518;28;20077;-68
2023/03/06 07:23:43;;;;;;;37.60;27.40;;;9.70;91.10;;;;;;5054777;28;20021;-67
2023/03/06 07:26:09;;;;;;;35.95;27.52;;;9.60;91.40;;;;;;5053685;28;20053;-67
2023/03/06 07:28:35;;;;;;;33.08;26.08;;;9.50;91.50;;;;;;5046331;28;20146;-67
2023/03/06 07:31:01;;;;;;;31.17;23.95;;;9.50;91.50;;;;;;5053254;28;20482;-67
2023/03/06 07:33:27;;;;;;;31.10;25.67;;;9.60;92.00;;;;;;5037067;28;20036;-67
2023/03/06 07:35:52;;;;;;;31.17;24.50;;;9.50;92.10;;;;;;5055011;28;20028;-67
2023/03/06 07:38:18;;;;;;;34.20;26.35;;;9.50;92.00;;;;;;5035300;28;20078;-66
2023/03/06 07:40:48;;;;;;;35.35;26.65;;;9.40;91.90;;;;;;5054843;28;20029;-67
2023/03/06 07:43:13;;;;;;;34.63;25.67;;;9.40;91.90;;;;;;5053451;28;20079;-66
2023/03/06 07:45:39;;;;;;;33.60;26.27;;;9.40;92.10;;;;;;5046012;28;20021;-66
2023/03/06 07:48:05;;;;;;;34.65;25.65;;;9.40;92.00;;;;;;5034662;28;20047;-67
2023/03/06 07:50:31;;;;;;;32.40;26.42;;;9.50;92.10;;;;;;5037394;28;20031;-67
2023/03/06 07:52:57;;;;;;;34.10;26.13;;;9.50;92.20;;;;;;5047683;28;20036;-67
2023/03/06 07:55:22;;;;;;;36.38;27.23;;;9.40;92.20;;;;;;5050025;28;20029;-67
2023/03/06 07:57:51;;;;;;;34.50;26.65;;;9.50;92.10;;;;;;5046684;28;20494;-67
2023/03/06 08:00:17;;;;;;;33.53;26.73;;;9.50;92.10;;;;;;5034690;28;20048;-67
2023/03/06 08:02:43;;;;;;;34.03;24.98;;;9.50;92.10;;;;;;5034121;28;20025;-67
2023/03/06 08:05:13;;;;;;;33.50;26.48;;;9.50;92.40;;;;;;5033850;28;20028;-67
2023/03/06 08:07:38;;;;;;;30.85;25.20;;;9.60;92.20;;;;;;5035345;28;20076;-68
2023/03/06 08:10:04;;;;;;;31.17;24.00;;;9.60;92.50;;;;;;5032150;28;20053;-67
2023/03/06 08:12:30;;;;;;;31.35;24.10;;;9.50;92.70;;;;;;5047694;28;20018;-67
2023/03/06 08:14:55;;;;;;;31.15;24.10;;;9.60;92.90;;;;;;5039781;28;20036;-68
2023/03/06 08:17:21;;;;;;;31.30;25.45;;;9.60;92.70;;;;;;5048339;28;20035;-68
2023/03/06 08:19:46;;;;;;;32.90;25.73;;;9.60;92.50;;;;;;5050380;28;20024;-69
2023/03/06 08:22:13;;;;;;;32.10;25.85;;;9.60;92.90;;;;;;5053428;28;20033;-68
2023/03/06 08:24:38;;;;;;;30.33;24.05;;;9.60;92.70;;;;;;5053805;28;20060;-69
2023/03/06 08:27:04;;;;;;;32.15;23.33;;;9.70;92.60;;;;;;5053113;28;20052;-69
2023/03/06 08:29:30;;;;;;;33.60;24.52;;;9.70;92.70;;;;;;5053193;28;20064;-68
2023/03/06 08:31:55;;;;;;;32.45;25.73;;;9.70;92.80;;;;;;5053018;28;20071;-68
2023/03/06 08:34:25;;;;;;;35.42;26.48;;;9.80;92.40;;;;;;5034611;28;20017;-68
2023/03/06 08:36:52;;;;;;;31.60;26.33;;;9.80;92.20;;;;;;5053450;28;20082;-68
2023/03/06 08:39:17;;;;;;;33.08;25.40;;;9.90;92.10;;;;;;5053688;28;20075;-68
2023/03/06 08:41:43;;;;;;;32.75;25.52;;;9.80;92.10;;;;;;5053502;28;20092;-68
2023/03/06 08:44:09;;;;;;;35.70;26.02;;;9.80;92.20;;;;;;5053591;28;20025;-68
2023/03/06 08:46:35;;;;;;;32.15;26.02;;;9.80;92.20;;;;;;5049684;28;20333;-69
2023/03/06 08:49:01;;;;;;;31.55;23.25;;;9.80;92.20;;;;;;5053376;28;20139;-69
2023/03/06 08:51:27;;;;;;;29.95;24.25;;;9.90;92.10;;;;;;5053229;28;20021;-69
2023/03/06 08:53:53;;;;;;;27.08;21.55;;;9.90;92.40;;;;;;5053306;28;20037;-69
2023/03/06 08:56:31;;;;;;;30.60;22.17;;;9.90;92.80;;;;;;5053458;28;20028;-69
2023/03/06 08:58:58;;;;;;;30.88;23.60;;;9.90;92.60;;;;;;5052730;28;20022;-68
2023/03/06 09:01:30;;;;;;;28.73;24.17;;;9.90;92.20;;;;;;5048294;28;20025;-69
2023/03/06 09:03:58;;;;;;;32.30;24.40;;;9.90;92.40;;;;;;5051575;28;20106;-69
2023/03/06 09:06:25;;;;;;;29.50;21.98;;;10.00;92.30;;;;;;5051975;28;20025;-68
2023/03/06 09:08:52;;;;;;;29.27;21.92;;;9.90;92.60;;;;;;5052371;28;20080;-69
2023/03/06 09:11:19;;;;;;;28.60;23.88;;;10.00;92.80;;;;;;5048644;28;20033;-68
2023/03/06 09:13:45;;;;;;;29.63;23.75;;;10.00;92.70;;;;;;5052365;28;20029;-68
2023/03/06 09:16:11;;;;;;;33.03;24.13;;;10.10;92.70;;;;;;5053262;28;20055;-68
2023/03/06 09:18:37;;;;;;;29.42;23.50;;;10.10;92.60;;;;;;5053382;28;20175;-67
2023/03/06 09:21:04;;;;;;;29.38;20.65;;;10.10;92.80;;;;;;5052614;28;20482;-74
2023/03/06 09:23:30;;;;;;;29.08;22.35;;;10.10;93.10;;;;;;5051012;28;20486;-70
2023/03/06 09:25:57;;;;;;;28.80;22.05;;;10.10;93.60;;;;;;5051070;28;20029;-70
2023/03/06 09:28:23;;;;;;;32.95;23.27;;;10.10;93.70;;;;;;5050314;28;20029;-69
2023/03/06 09:30:49;;;;;;;31.63;24.38;;;10.20;93.90;;;;;;5052694;28;20024;-68
2023/03/06 09:33:15;;;;;;;28.83;20.10;;;10.20;93.90;;;;;;5052910;28;20033;-68
2023/03/06 09:35:54;;;;;;;25.55;18.67;;;10.30;94.40;;;;;;5052236;28;20074;-69
2023/03/06 09:38:23;;;;;;;28.35;22.45;;;10.40;95.80;;;;;;5034807;28;20114;-68
2023/03/06 09:40:58;;;;;;;28.08;18.95;;;10.40;95.20;;;;;;5051930;28;20043;-69
2023/03/06 09:43:45;;;;;;;32.25;21.92;;;10.40;96.50;;;;;;5052287;28;20017;-68
2023/03/06 09:46:41;;;;;;;26.25;20.63;;;10.40;94.70;;;;;;5052539;28;20028;-70
2023/03/06 09:49:32;;;;;;;26.40;20.17;;;10.50;94.90;;;;;;5050967;28;20037;-68
2023/03/06 09:52:22;;;;;;;27.80;21.08;;;10.50;95.50;;;;;;5052969;28;20063;-69
2023/03/06 09:54:57;;;;;;;22.60;16.77;;;10.50;95.30;;;;;;5047134;28;20505;-68
2023/03/06 09:57:27;;;;;;;24.38;17.98;;;10.60;96.50;;;;;;5052368;28;20040;-68
2023/03/06 10:00:00;;;;;;;22.70;17.23;;;10.60;96.10;;;;;;5043649;28;20112;-69
2023/03/06 10:02:48;;;;;;;22.10;15.25;;;10.70;99.60;;;;;;5049056;28;20036;-70
2023/03/06 10:05:24;;;;;;;23.65;18.42;;;10.80;98.20;;;;;;5047869;28;20099;-68
2023/03/06 10:08:03;;;;;;;25.38;16.20;;;10.80;95.70;;;;;;5052182;28;20429;-69
2023/03/06 10:10:43;;;;;;;19.38;15.80;;;10.80;96.50;;;;;;5039228;28;20017;-68
2023/03/06 10:13:19;;;;;;;22.30;17.23;;;10.90;97.30;;;;;;5032387;28;20036;-68
2023/03/06 10:15:46;;;;;;;24.25;14.88;;;10.90;95.80;;;;;;5032156;28;20026;-68
2023/03/06 10:18:13;;;;;;;23.27;12.18;;;10.90;97.30;;;;;;5037166;28;20044;-68
2023/03/06 10:20:57;;;;;;;21.77;13.13;;;11.00;98.30;;;;;;5051141;28;20025;-68
2023/03/06 10:23:50;;;;;;;27.33;19.38;;;11.00;98.30;;;;;;5046927;28;20029;-68
2023/03/06 10:26:21;;;;;;;20.92;17.52;;;11.00;95.80;;;;;;5032194;28;20527;-68
2023/03/06 10:29:03;;;;;;;20.40;17.02;;;11.00;94.40;;;;;;5032054;28;20127;-68
2023/03/06 10:31:30;;;;;;;19.00;13.85;;;11.00;93.60;;;;;;5042376;28;20029;-70
2023/03/06 10:34:06;;;;;;;22.17;15.13;;;11.10;95.60;;;;;;5046287;28;20029;-69
2023/03/06 10:36:32;;;;;;;21.83;14.25;;;11.10;95.30;;;;;;5052254;28;20051;-70
2023/03/06 10:38:58;;;;;;;20.60;10.65;;;11.10;95.50;;;;;;5046713;28;20478;-69
2023/03/06 10:41:31;;;;;;;22.17;17.35;;;11.20;99.40;;;;;;5051820;28;20033;-69
2023/03/06 10:44:00;;;;;;;18.90;13.85;;;11.30;96.70;;;;;;5046465;28;20021;-69
2023/03/06 10:46:29;;;;;;;19.90;16.08;;;11.30;97.10;;;;;;5047137;28;20022;-69
2023/03/06 10:49:03;;;;;;;16.58;11.48;;;11.30;96.80;;;;;;5047044;28;20026;-68
2023/03/06 10:51:30;;;;;;;22.83;15.95;;;11.30;98.10;;;;;;5034153;28;20347;-68
2023/03/06 10:54:17;;;;;;;20.83;16.95;;;11.40;96.30;;;;;;5035741;28;20026;-68
2023/03/06 10:56:45;;;;;;;18.45;13.95;;;11.40;94.20;;;;;;5035762;28;20025;-69
2023/03/06 10:59:21;;;;;;;23.13;17.95;;;11.40;93.50;;;;;;5035756;28;20033;-69
2023/03/06 11:01:53;;;;;;;20.08;16.95;;;11.40;92.60;;;;;;5035247;28;20026;-69
2023/03/06 11:04:31;;;;;;;22.33;18.00;;;11.40;92.00;;;;;;5047442;28;20029;-68
2023/03/06 11:07:16;;;;;;;23.95;19.05;;;11.40;91.60;;;;;;5055210;28;20045;-68
2023/03/06 11:10:03;;;;;;;22.48;17.45;;;11.40;92.00;;;;;;5052574;28;20040;-69
2023/03/06 11:12:32;;;;;;;18.00;15.55;;;11.40;93.00;;;;;;5040988;28;20062;-69
2023/03/06 11:15:13;;;;;;;28.88;24.58;;;11.50;95.00;;;;;;5055330;28;20108;-69
2023/03/06 11:18:00;;;;;;;26.70;22.13;;;11.50;93.20;;;;;;5054828;28;20021;-69
2023/03/06 11:20:45;;;;;;;28.52;24.73;;;11.50;95.40;;;;;;5055386;28;20107;-69
2023/03/06 11:23:38;;;;;;;19.02;16.80;;;11.60;93.30;;;;;;5054981;28;20029;-69
2023/03/06 11:26:15;;;;;;;18.63;15.07;;;11.60;96.30;;;;;;5036906;28;20048;-69
2023/03/06 11:29:12;;;;;;;20.30;16.10;;;11.70;97.50;;;;;;5055084;28;20091;-69
2023/03/06 11:31:46;;;;;;;25.13;19.45;;;11.70;97.10;;;;;;5036724;28;20036;-69
2023/03/06 11:34:14;;;;;;;20.58;17.95;;;11.80;96.80;;;;;;5054754;28;20505;-69
2023/03/06 11:36:44;;;;;;;24.83;21.08;;;11.80;96.50;;;;;;5054861;28;20033;-69
2023/03/06 11:39:23;;;;;;;21.75;15.85;;;11.80;97.10;;;;;;5054824;28;20028;-69
2023/03/06 11:42:01;;;;;;;14.60;10.50;;;11.90;95.40;;;;;;5036944;28;20108;-69
2023/03/06 11:44:56;;;;;;;15.20;13.50;;;12.00;98.10;;;;;;5054720;28;20025;-69
2023/03/06 11:47:32;;;;;;;12.70;9.48;;;12.00;98.30;;;;;;5054261;28;20048;-69
2023/03/06 11:50:16;;;;;;;19.98;14.75;;;12.10;98.70;;;;;;5054784;28;20413;-69
2023/03/06 11:53:11;;;;;;;15.98;12.85;;;12.10;95.80;;;;;;5054570;28;20025;-69
2023/03/06 11:55:46;;;;;;;15.55;12.20;;;12.00;96.20;;;;;;5050340;28;20037;-69
2023/03/06 11:58:43;;;;;;;13.75;11.15;;;12.10;96.00;;;;;;5054397;28;20033;-69
2023/03/06 12:01:30;;;;;;;20.48;14.65;;;12.10;96.80;;;;;;5026812;28;20390;-69
2023/03/06 12:04:05;;;;;;;18.27;12.90;;;12.10;94.30;;;;;;5053337;28;20025;-69
2023/03/06 12:06:42;;;;;;;15.70;12.23;;;12.10;95.70;;;;;;5054274;28;20036;-69
2023/03/06 12:09:11;;;;;;;8.52;6.85;;;12.20;95.60;;;;;;5054384;28;20049;-69
2023/03/06 12:11:40;;;;;;;13.35;9.75;;;12.20;97.80;;;;;;5054350;28;20021;-69
2023/03/06 12:14:16;;;;;;;12.50;10.00;;;12.30;97.30;;;;;;5036041;28;20032;-69
2023/03/06 12:16:57;;;;;;;10.13;7.88;;;12.30;97.00;;;;;;5054351;28;20017;-69
2023/03/06 12:19:48;;;;;;;13.20;9.32;;;12.40;97.40;;;;;;5054186;28;20052;-69
2023/03/06 12:22:45;;;;;;;9.73;7.07;;;12.40;96.80;;;;;;5053718;28;20108;-69
2023/03/06 12:25:33;;;;;;;10.82;8.40;;;12.40;97.00;;;;;;5053893;28;20398;-69
2023/03/06 12:28:08;;;;;;;13.20;10.40;;;12.40;96.30;;;;;;5053867;28;20039;-69
2023/03/06 12:30:57;;;;;;;11.45;7.88;;;12.50;95.70;;;;;;5053729;28;20040;-69
2023/03/06 12:33:46;;;;;;;9.02;7.63;;;12.50;95.20;;;;;;5053648;28;20021;-69
2023/03/06 12:36:35;;;;;;;11.95;8.27;;;12.60;95.40;;;;;;5053716;28;20032;-69
2023/03/06 12:39:09;;;;;;;10.85;8.27;;;12.60;96.00;;;;;;5053526;28;20036;-69
2023/03/06 12:42:09;;;;;;;13.45;8.38;;;12.60;96.00;;;;;;5035746;28;20036;-69